sensor_id;sensor_type;location;lat;lon;timestamp;P1;durP1;ratioP1;P2;durP2;ratioP2
43449;SDS011;29041;42.266;23.110;2023-12-20T00:02:34;19.10;;;6.80;;
43449;SDS011;29041;42.266;23.110;2023-12-20T00:05:21;15.52;;;6.90;;
43449;SDS011;29041;42.266;23.110;2023-12-20T00:08:10;28.00;;;8.93;;
43449;SDS011;29041;42.266;23.110;2023-12-20T00:10:57;18.45;;;9.07;;
43449;SDS011;29041;42.266;23.110;2023-12-20T00:13:44;18.15;;;6.40;;
43449;SDS011;29041;42.266;23.110;2023-12-20T00:16:31;19.75;;;8.32;;
43449;SDS011;29041;42.266;23.110;2023-12-20T00:19:23;19.27;;;9.05;;
43449;SDS011;29041;42.266;23.110;2023-12-20T00:22:11;19.33;;;7.13;;
43449;SDS011;29041;42.266;23.110;2023-12-20T00:24:59;19.48;;;6.85;;
43449;SDS011;29041;42.266;23.110;2023-12-20T00:27:46;15.00;;;6.38;;
43449;SDS011;29041;42.266;23.110;2023-12-20T00:30:33;15.68;;;6.05;;
43449;SDS011;29041;42.266;23.110;2023-12-20T00:33:21;17.67;;;7.05;;
43449;SDS011;29041;42.266;23.110;2023-12-20T00:36:09;23.63;;;5.63;;
43449;SDS011;29041;42.266;23.110;2023-12-20T00:38:56;9.20;;;4.18;;
43449;SDS011;29041;42.266;23.110;2023-12-20T00:41:45;23.38;;;6.18;;
43449;SDS011;29041;42.266;23.110;2023-12-20T00:44:32;9.95;;;4.78;;
43449;SDS011;29041;42.266;23.110;2023-12-20T00:47:19;13.27;;;6.35;;
43449;SDS011;29041;42.266;23.110;2023-12-20T00:50:07;12.15;;;6.20;;
43449;SDS011;29041;42.266;23.110;2023-12-20T00:52:55;15.10;;;6.93;;
43449;SDS011;29041;42.266;23.110;2023-12-20T00:55:42;24.40;;;8.02;;
43449;SDS011;29041;42.266;23.110;2023-12-20T00:58:31;21.15;;;7.13;;
43449;SDS011;29041;42.266;23.110;2023-12-20T01:01:18;22.23;;;7.15;;
43449;SDS011;29041;42.266;23.110;2023-12-20T01:04:05;18.08;;;8.18;;
43449;SDS011;29041;42.266;23.110;2023-12-20T01:06:53;28.63;;;7.97;;
43449;SDS011;29041;42.266;23.110;2023-12-20T01:09:40;15.85;;;6.88;;
43449;SDS011;29041;42.266;23.110;2023-12-20T01:12:27;21.13;;;6.50;;
43449;SDS011;29041;42.266;23.110;2023-12-20T01:15:18;20.20;;;7.70;;
43449;SDS011;29041;42.266;23.110;2023-12-20T01:18:05;14.95;;;6.60;;
43449;SDS011;29041;42.266;23.110;2023-12-20T01:20:52;11.98;;;6.68;;
43449;SDS011;29041;42.266;23.110;2023-12-20T01:23:39;21.08;;;6.95;;
43449;SDS011;29041;42.266;23.110;2023-12-20T01:26:26;16.92;;;6.65;;
43449;SDS011;29041;42.266;23.110;2023-12-20T01:29:13;16.42;;;5.95;;
43449;SDS011;29041;42.266;23.110;2023-12-20T01:32:02;9.05;;;5.28;;
43449;SDS011;29041;42.266;23.110;2023-12-20T01:34:50;13.13;;;7.35;;
43449;SDS011;29041;42.266;23.110;2023-12-20T01:37:37;13.07;;;5.38;;
43449;SDS011;29041;42.266;23.110;2023-12-20T01:40:24;12.48;;;5.28;;
43449;SDS011;29041;42.266;23.110;2023-12-20T01:43:11;8.82;;;5.53;;
43449;SDS011;29041;42.266;23.110;2023-12-20T01:45:58;10.55;;;4.95;;
43449;SDS011;29041;42.266;23.110;2023-12-20T01:48:48;9.13;;;4.65;;
43449;SDS011;29041;42.266;23.110;2023-12-20T01:51:35;17.00;;;6.47;;
43449;SDS011;29041;42.266;23.110;2023-12-20T01:54:23;7.07;;;3.85;;
43449;SDS011;29041;42.266;23.110;2023-12-20T01:57:10;9.90;;;4.53;;
43449;SDS011;29041;42.266;23.110;2023-12-20T01:59:57;6.28;;;3.50;;
43449;SDS011;29041;42.266;23.110;2023-12-20T02:02:45;7.30;;;5.53;;
43449;SDS011;29041;42.266;23.110;2023-12-20T02:05:35;8.68;;;4.43;;
43449;SDS011;29041;42.266;23.110;2023-12-20T02:08:22;5.70;;;4.00;;
43449;SDS011;29041;42.266;23.110;2023-12-20T02:11:10;12.82;;;5.70;;
43449;SDS011;29041;42.266;23.110;2023-12-20T02:13:57;4.78;;;3.30;;
43449;SDS011;29041;42.266;23.110;2023-12-20T02:16:44;9.60;;;5.80;;
43449;SDS011;29041;42.266;23.110;2023-12-20T02:19:31;11.18;;;4.05;;
43449;SDS011;29041;42.266;23.110;2023-12-20T02:22:20;10.20;;;5.47;;
43449;SDS011;29041;42.266;23.110;2023-12-20T02:25:07;7.05;;;3.85;;
43449;SDS011;29041;42.266;23.110;2023-12-20T02:27:54;8.75;;;3.65;;
43449;SDS011;29041;42.266;23.110;2023-12-20T02:30:42;12.20;;;5.10;;
43449;SDS011;29041;42.266;23.110;2023-12-20T02:33:29;10.60;;;5.57;;
43449;SDS011;29041;42.266;23.110;2023-12-20T02:36:16;11.07;;;3.70;;
43449;SDS011;29041;42.266;23.110;2023-12-20T02:39:05;11.13;;;5.07;;
43449;SDS011;29041;42.266;23.110;2023-12-20T02:41:52;15.73;;;5.80;;
43449;SDS011;29041;42.266;23.110;2023-12-20T02:44:39;5.75;;;4.40;;
43449;SDS011;29041;42.266;23.110;2023-12-20T02:47:26;7.03;;;4.13;;
43449;SDS011;29041;42.266;23.110;2023-12-20T02:50:15;10.25;;;5.85;;
43449;SDS011;29041;42.266;23.110;2023-12-20T02:53:02;8.98;;;4.25;;
43449;SDS011;29041;42.266;23.110;2023-12-20T02:55:51;7.78;;;3.75;;
43449;SDS011;29041;42.266;23.110;2023-12-20T02:58:38;9.13;;;5.97;;
43449;SDS011;29041;42.266;23.110;2023-12-20T03:01:25;10.40;;;5.13;;
43449;SDS011;29041;42.266;23.110;2023-12-20T03:04:18;14.57;;;6.72;;
43449;SDS011;29041;42.266;23.110;2023-12-20T03:07:05;6.85;;;5.53;;
43449;SDS011;29041;42.266;23.110;2023-12-20T03:09:52;10.75;;;6.72;;
43449;SDS011;29041;42.266;23.110;2023-12-20T03:12:41;26.70;;;6.28;;
43449;SDS011;29041;42.266;23.110;2023-12-20T03:15:28;10.38;;;5.38;;
43449;SDS011;29041;42.266;23.110;2023-12-20T03:18:15;9.32;;;5.13;;
43449;SDS011;29041;42.266;23.110;2023-12-20T03:21:03;8.05;;;3.67;;
43449;SDS011;29041;42.266;23.110;2023-12-20T03:23:51;11.05;;;5.93;;
43449;SDS011;29041;42.266;23.110;2023-12-20T03:26:38;9.40;;;4.63;;
43449;SDS011;29041;42.266;23.110;2023-12-20T03:29:26;10.27;;;4.35;;
43449;SDS011;29041;42.266;23.110;2023-12-20T03:32:13;10.10;;;5.35;;
43449;SDS011;29041;42.266;23.110;2023-12-20T03:35:01;14.63;;;5.55;;
43449;SDS011;29041;42.266;23.110;2023-12-20T03:37:48;13.35;;;4.80;;
43449;SDS011;29041;42.266;23.110;2023-12-20T03:40:35;7.75;;;4.45;;
43449;SDS011;29041;42.266;23.110;2023-12-20T03:43:22;11.88;;;4.97;;
43449;SDS011;29041;42.266;23.110;2023-12-20T03:46:11;13.82;;;6.50;;
43449;SDS011;29041;42.266;23.110;2023-12-20T03:48:58;13.90;;;5.82;;
43449;SDS011;29041;42.266;23.110;2023-12-20T03:51:45;12.90;;;5.93;;
43449;SDS011;29041;42.266;23.110;2023-12-20T03:54:32;11.68;;;5.90;;
43449;SDS011;29041;42.266;23.110;2023-12-20T03:57:20;12.93;;;4.32;;
43449;SDS011;29041;42.266;23.110;2023-12-20T04:00:07;9.82;;;4.43;;
43449;SDS011;29041;42.266;23.110;2023-12-20T04:02:57;8.20;;;4.30;;
43449;SDS011;29041;42.266;23.110;2023-12-20T04:05:44;12.15;;;5.07;;
43449;SDS011;29041;42.266;23.110;2023-12-20T04:08:31;7.10;;;4.70;;
43449;SDS011;29041;42.266;23.110;2023-12-20T04:11:18;6.95;;;4.55;;
43449;SDS011;29041;42.266;23.110;2023-12-20T04:14:06;27.45;;;4.53;;
43449;SDS011;29041;42.266;23.110;2023-12-20T04:16:53;9.23;;;4.75;;
43449;SDS011;29041;42.266;23.110;2023-12-20T04:19:41;16.58;;;6.13;;
43449;SDS011;29041;42.266;23.110;2023-12-20T04:22:29;7.15;;;4.18;;
43449;SDS011;29041;42.266;23.110;2023-12-20T04:25:16;25.67;;;8.75;;
43449;SDS011;29041;42.266;23.110;2023-12-20T04:28:03;10.88;;;5.65;;
43449;SDS011;29041;42.266;23.110;2023-12-20T04:30:50;12.13;;;5.03;;
43449;SDS011;29041;42.266;23.110;2023-12-20T04:33:37;17.25;;;4.07;;
43449;SDS011;29041;42.266;23.110;2023-12-20T04:36:26;17.05;;;6.82;;
43449;SDS011;29041;42.266;23.110;2023-12-20T04:39:15;12.60;;;6.10;;
43449;SDS011;29041;42.266;23.110;2023-12-20T04:42:03;23.50;;;6.93;;
43449;SDS011;29041;42.266;23.110;2023-12-20T04:44:50;17.02;;;7.55;;
43449;SDS011;29041;42.266;23.110;2023-12-20T04:47:37;25.60;;;7.07;;
43449;SDS011;29041;42.266;23.110;2023-12-20T04:50:24;18.08;;;5.10;;
43449;SDS011;29041;42.266;23.110;2023-12-20T04:53:13;22.40;;;5.82;;
43449;SDS011;29041;42.266;23.110;2023-12-20T04:56:00;20.70;;;4.50;;
43449;SDS011;29041;42.266;23.110;2023-12-20T04:58:47;15.10;;;5.63;;
43449;SDS011;29041;42.266;23.110;2023-12-20T05:01:34;11.88;;;4.00;;
43449;SDS011;29041;42.266;23.110;2023-12-20T05:04:21;9.40;;;3.90;;
43449;SDS011;29041;42.266;23.110;2023-12-20T05:07:08;8.60;;;3.75;;
43449;SDS011;29041;42.266;23.110;2023-12-20T05:09:57;16.63;;;6.88;;
43449;SDS011;29041;42.266;23.110;2023-12-20T05:12:44;20.38;;;4.80;;
43449;SDS011;29041;42.266;23.110;2023-12-20T05:15:32;9.82;;;5.20;;
43449;SDS011;29041;42.266;23.110;2023-12-20T05:18:19;10.90;;;7.60;;
43449;SDS011;29041;42.266;23.110;2023-12-20T05:21:07;13.20;;;5.35;;
43449;SDS011;29041;42.266;23.110;2023-12-20T05:23:54;13.50;;;3.28;;
43449;SDS011;29041;42.266;23.110;2023-12-20T05:26:42;8.23;;;4.32;;
43449;SDS011;29041;42.266;23.110;2023-12-20T05:29:29;7.68;;;3.85;;
43449;SDS011;29041;42.266;23.110;2023-12-20T05:32:16;14.18;;;4.07;;
43449;SDS011;29041;42.266;23.110;2023-12-20T05:35:04;4.32;;;2.63;;
43449;SDS011;29041;42.266;23.110;2023-12-20T05:37:51;16.92;;;4.55;;
43449;SDS011;29041;42.266;23.110;2023-12-20T05:40:38;16.23;;;3.83;;
43449;SDS011;29041;42.266;23.110;2023-12-20T05:43:27;7.50;;;5.28;;
43449;SDS011;29041;42.266;23.110;2023-12-20T05:46:14;10.15;;;4.90;;
43449;SDS011;29041;42.266;23.110;2023-12-20T05:49:01;6.72;;;4.65;;
43449;SDS011;29041;42.266;23.110;2023-12-20T05:51:48;8.85;;;4.95;;
43449;SDS011;29041;42.266;23.110;2023-12-20T05:54:36;6.88;;;2.78;;
43449;SDS011;29041;42.266;23.110;2023-12-20T05:57:23;8.85;;;4.43;;
43449;SDS011;29041;42.266;23.110;2023-12-20T06:00:13;7.47;;;3.25;;
43449;SDS011;29041;42.266;23.110;2023-12-20T06:03:01;13.70;;;4.05;;
43449;SDS011;29041;42.266;23.110;2023-12-20T06:05:50;10.80;;;5.97;;
43449;SDS011;29041;42.266;23.110;2023-12-20T06:08:38;5.10;;;3.33;;
43449;SDS011;29041;42.266;23.110;2023-12-20T06:11:25;7.70;;;3.72;;
43449;SDS011;29041;42.266;23.110;2023-12-20T06:14:13;8.63;;;3.75;;
43449;SDS011;29041;42.266;23.110;2023-12-20T06:17:01;10.27;;;4.30;;
43449;SDS011;29041;42.266;23.110;2023-12-20T06:19:49;7.68;;;3.88;;
43449;SDS011;29041;42.266;23.110;2023-12-20T06:22:41;8.18;;;4.18;;
43449;SDS011;29041;42.266;23.110;2023-12-20T06:25:28;11.82;;;5.47;;
43449;SDS011;29041;42.266;23.110;2023-12-20T06:28:16;5.82;;;4.55;;
43449;SDS011;29041;42.266;23.110;2023-12-20T06:31:03;19.20;;;5.82;;
43449;SDS011;29041;42.266;23.110;2023-12-20T06:33:51;8.55;;;4.72;;
43449;SDS011;29041;42.266;23.110;2023-12-20T06:36:42;8.32;;;4.53;;
43449;SDS011;29041;42.266;23.110;2023-12-20T06:39:29;8.15;;;5.68;;
43449;SDS011;29041;42.266;23.110;2023-12-20T06:42:19;19.85;;;12.13;;
43449;SDS011;29041;42.266;23.110;2023-12-20T06:45:06;15.65;;;8.52;;
43449;SDS011;29041;42.266;23.110;2023-12-20T06:47:54;17.73;;;7.07;;
43449;SDS011;29041;42.266;23.110;2023-12-20T06:54:15;13.82;;;6.35;;
43449;SDS011;29041;42.266;23.110;2023-12-20T06:57:02;24.02;;;5.78;;
43449;SDS011;29041;42.266;23.110;2023-12-20T06:59:50;16.08;;;5.78;;
43449;SDS011;29041;42.266;23.110;2023-12-20T07:02:37;19.33;;;6.80;;
43449;SDS011;29041;42.266;23.110;2023-12-20T07:05:24;14.23;;;7.57;;
43449;SDS011;29041;42.266;23.110;2023-12-20T07:08:12;11.88;;;5.00;;
43449;SDS011;29041;42.266;23.110;2023-12-20T07:11:02;9.85;;;4.15;;
43449;SDS011;29041;42.266;23.110;2023-12-20T07:13:49;7.95;;;3.78;;
43449;SDS011;29041;42.266;23.110;2023-12-20T07:16:37;10.75;;;4.95;;
43449;SDS011;29041;42.266;23.110;2023-12-20T07:19:24;6.80;;;4.82;;
43449;SDS011;29041;42.266;23.110;2023-12-20T07:22:11;30.92;;;12.43;;
43449;SDS011;29041;42.266;23.110;2023-12-20T07:24:58;11.02;;;5.80;;
43449;SDS011;29041;42.266;23.110;2023-12-20T07:27:47;5.55;;;4.90;;
43449;SDS011;29041;42.266;23.110;2023-12-20T07:30:34;9.95;;;5.78;;
43449;SDS011;29041;42.266;23.110;2023-12-20T07:33:21;7.82;;;4.00;;
43449;SDS011;29041;42.266;23.110;2023-12-20T07:36:08;8.57;;;5.30;;
43449;SDS011;29041;42.266;23.110;2023-12-20T07:38:56;14.50;;;6.60;;
43449;SDS011;29041;42.266;23.110;2023-12-20T07:41:43;14.52;;;5.95;;
43449;SDS011;29041;42.266;23.110;2023-12-20T07:44:32;13.02;;;5.80;;
43449;SDS011;29041;42.266;23.110;2023-12-20T07:47:19;13.40;;;5.88;;
43449;SDS011;29041;42.266;23.110;2023-12-20T07:50:07;9.52;;;5.90;;
43449;SDS011;29041;42.266;23.110;2023-12-20T07:52:54;21.83;;;7.63;;
43449;SDS011;29041;42.266;23.110;2023-12-20T07:55:41;39.60;;;17.08;;
43449;SDS011;29041;42.266;23.110;2023-12-20T07:58:28;11.90;;;7.05;;
43449;SDS011;29041;42.266;23.110;2023-12-20T08:01:18;9.63;;;6.28;;
43449;SDS011;29041;42.266;23.110;2023-12-20T08:04:05;19.30;;;7.72;;
43449;SDS011;29041;42.266;23.110;2023-12-20T08:06:52;21.45;;;13.52;;
43449;SDS011;29041;42.266;23.110;2023-12-20T08:09:39;19.77;;;9.65;;
43449;SDS011;29041;42.266;23.110;2023-12-20T08:12:27;14.60;;;8.57;;
43449;SDS011;29041;42.266;23.110;2023-12-20T08:15:14;21.58;;;10.52;;
43449;SDS011;29041;42.266;23.110;2023-12-20T08:18:03;18.23;;;10.05;;
43449;SDS011;29041;42.266;23.110;2023-12-20T08:20:51;18.67;;;8.50;;
43449;SDS011;29041;42.266;23.110;2023-12-20T08:23:39;18.83;;;7.53;;
43449;SDS011;29041;42.266;23.110;2023-12-20T08:26:28;13.82;;;7.18;;
43449;SDS011;29041;42.266;23.110;2023-12-20T08:29:15;17.20;;;9.18;;
43449;SDS011;29041;42.266;23.110;2023-12-20T08:32:03;17.95;;;11.30;;
43449;SDS011;29041;42.266;23.110;2023-12-20T08:34:52;23.13;;;8.95;;
43449;SDS011;29041;42.266;23.110;2023-12-20T08:37:39;23.95;;;10.55;;
43449;SDS011;29041;42.266;23.110;2023-12-20T08:40:26;28.55;;;10.55;;
43449;SDS011;29041;42.266;23.110;2023-12-20T08:43:13;21.65;;;9.70;;
43449;SDS011;29041;42.266;23.110;2023-12-20T08:46:00;34.75;;;10.43;;
43449;SDS011;29041;42.266;23.110;2023-12-20T08:48:48;30.90;;;11.45;;
43449;SDS011;29041;42.266;23.110;2023-12-20T08:51:42;23.63;;;11.38;;
43449;SDS011;29041;42.266;23.110;2023-12-20T08:54:29;16.88;;;10.10;;
43449;SDS011;29041;42.266;23.110;2023-12-20T08:57:16;31.08;;;13.50;;
43449;SDS011;29041;42.266;23.110;2023-12-20T09:00:03;23.70;;;12.90;;
43449;SDS011;29041;42.266;23.110;2023-12-20T09:02:53;24.30;;;11.25;;
43449;SDS011;29041;42.266;23.110;2023-12-20T09:05:41;17.67;;;10.07;;
43449;SDS011;29041;42.266;23.110;2023-12-20T09:08:29;23.20;;;10.70;;
43449;SDS011;29041;42.266;23.110;2023-12-20T09:11:16;15.73;;;10.82;;
43449;SDS011;29041;42.266;23.110;2023-12-20T09:14:04;27.27;;;12.15;;
43449;SDS011;29041;42.266;23.110;2023-12-20T09:16:51;26.90;;;10.57;;
43449;SDS011;29041;42.266;23.110;2023-12-20T09:19:41;29.48;;;13.40;;
43449;SDS011;29041;42.266;23.110;2023-12-20T09:22:29;29.58;;;13.38;;
43449;SDS011;29041;42.266;23.110;2023-12-20T09:25:17;21.95;;;10.85;;
43449;SDS011;29041;42.266;23.110;2023-12-20T09:28:05;27.77;;;11.48;;
43449;SDS011;29041;42.266;23.110;2023-12-20T09:30:52;25.63;;;12.10;;
43449;SDS011;29041;42.266;23.110;2023-12-20T09:33:39;23.80;;;12.68;;
43449;SDS011;29041;42.266;23.110;2023-12-20T09:36:26;33.80;;;14.20;;
43449;SDS011;29041;42.266;23.110;2023-12-20T09:39:13;27.15;;;15.00;;
43449;SDS011;29041;42.266;23.110;2023-12-20T09:42:02;14.98;;;10.25;;
43449;SDS011;29041;42.266;23.110;2023-12-20T09:44:51;30.65;;;14.02;;
43449;SDS011;29041;42.266;23.110;2023-12-20T09:47:38;72.25;;;25.35;;
43449;SDS011;29041;42.266;23.110;2023-12-20T09:50:25;31.85;;;14.18;;
43449;SDS011;29041;42.266;23.110;2023-12-20T09:53:14;30.10;;;13.45;;
43449;SDS011;29041;42.266;23.110;2023-12-20T09:56:02;22.98;;;12.15;;
43449;SDS011;29041;42.266;23.110;2023-12-20T09:58:51;19.73;;;11.10;;
43449;SDS011;29041;42.266;23.110;2023-12-20T10:01:40;29.70;;;13.70;;
43449;SDS011;29041;42.266;23.110;2023-12-20T10:04:27;30.58;;;16.58;;
43449;SDS011;29041;42.266;23.110;2023-12-20T10:07:18;43.28;;;16.88;;
43449;SDS011;29041;42.266;23.110;2023-12-20T10:10:06;25.08;;;13.30;;
43449;SDS011;29041;42.266;23.110;2023-12-20T10:13:01;38.03;;;13.85;;
43449;SDS011;29041;42.266;23.110;2023-12-20T10:15:51;34.70;;;14.77;;
43449;SDS011;29041;42.266;23.110;2023-12-20T10:18:38;35.15;;;14.02;;
43449;SDS011;29041;42.266;23.110;2023-12-20T10:21:26;33.50;;;16.05;;
43449;SDS011;29041;42.266;23.110;2023-12-20T10:24:16;26.90;;;15.82;;
43449;SDS011;29041;42.266;23.110;2023-12-20T10:27:04;31.92;;;15.65;;
43449;SDS011;29041;42.266;23.110;2023-12-20T10:29:52;33.15;;;15.10;;
43449;SDS011;29041;42.266;23.110;2023-12-20T10:32:40;39.03;;;16.42;;
43449;SDS011;29041;42.266;23.110;2023-12-20T10:35:28;35.95;;;16.45;;
43449;SDS011;29041;42.266;23.110;2023-12-20T10:38:15;24.40;;;12.60;;
43449;SDS011;29041;42.266;23.110;2023-12-20T10:41:02;24.15;;;12.40;;
43449;SDS011;29041;42.266;23.110;2023-12-20T10:43:52;26.17;;;12.73;;
43449;SDS011;29041;42.266;23.110;2023-12-20T10:46:39;23.73;;;11.90;;
43449;SDS011;29041;42.266;23.110;2023-12-20T10:49:34;27.98;;;14.65;;
43449;SDS011;29041;42.266;23.110;2023-12-20T10:52:23;29.65;;;14.32;;
43449;SDS011;29041;42.266;23.110;2023-12-20T10:55:11;28.85;;;14.40;;
43449;SDS011;29041;42.266;23.110;2023-12-20T10:58:00;30.02;;;15.35;;
43449;SDS011;29041;42.266;23.110;2023-12-20T11:00:48;25.60;;;13.82;;
43449;SDS011;29041;42.266;23.110;2023-12-20T11:03:39;29.35;;;14.90;;
43449;SDS011;29041;42.266;23.110;2023-12-20T11:06:35;22.38;;;12.55;;
43449;SDS011;29041;42.266;23.110;2023-12-20T11:09:28;37.95;;;17.25;;
43449;SDS011;29041;42.266;23.110;2023-12-20T11:12:24;34.78;;;17.67;;
43449;SDS011;29041;42.266;23.110;2023-12-20T11:15:19;45.28;;;18.98;;
43449;SDS011;29041;42.266;23.110;2023-12-20T11:18:07;34.33;;;17.40;;
43449;SDS011;29041;42.266;23.110;2023-12-20T11:21:00;38.90;;;19.52;;
43449;SDS011;29041;42.266;23.110;2023-12-20T11:23:50;39.03;;;20.08;;
43449;SDS011;29041;42.266;23.110;2023-12-20T11:26:37;38.90;;;19.52;;
43449;SDS011;29041;42.266;23.110;2023-12-20T11:29:31;45.50;;;22.38;;
43449;SDS011;29041;42.266;23.110;2023-12-20T11:32:28;42.80;;;22.42;;
43449;SDS011;29041;42.266;23.110;2023-12-20T11:35:18;39.83;;;20.70;;
43449;SDS011;29041;42.266;23.110;2023-12-20T11:38:07;54.17;;;23.05;;
43449;SDS011;29041;42.266;23.110;2023-12-20T11:40:56;42.33;;;21.00;;
43449;SDS011;29041;42.266;23.110;2023-12-20T11:43:44;58.58;;;24.13;;
43449;SDS011;29041;42.266;23.110;2023-12-20T11:46:33;52.90;;;23.45;;
43449;SDS011;29041;42.266;23.110;2023-12-20T11:49:22;47.15;;;22.50;;
43449;SDS011;29041;42.266;23.110;2023-12-20T11:52:11;51.90;;;22.48;;
43449;SDS011;29041;42.266;23.110;2023-12-20T11:54:59;39.83;;;18.10;;
43449;SDS011;29041;42.266;23.110;2023-12-20T11:57:47;45.95;;;20.63;;
43449;SDS011;29041;42.266;23.110;2023-12-20T12:00:34;44.95;;;21.55;;
43449;SDS011;29041;42.266;23.110;2023-12-20T12:03:22;44.38;;;22.45;;
43449;SDS011;29041;42.266;23.110;2023-12-20T12:06:09;49.13;;;21.10;;
43449;SDS011;29041;42.266;23.110;2023-12-20T12:08:56;53.67;;;24.50;;
43449;SDS011;29041;42.266;23.110;2023-12-20T12:11:43;53.80;;;26.85;;
43449;SDS011;29041;42.266;23.110;2023-12-20T12:14:32;51.10;;;23.45;;
43449;SDS011;29041;42.266;23.110;2023-12-20T12:17:20;47.28;;;23.33;;
43449;SDS011;29041;42.266;23.110;2023-12-20T12:20:08;48.92;;;24.73;;
43449;SDS011;29041;42.266;23.110;2023-12-20T12:22:58;55.00;;;21.10;;
43449;SDS011;29041;42.266;23.110;2023-12-20T12:25:46;43.65;;;20.75;;
43449;SDS011;29041;42.266;23.110;2023-12-20T12:28:34;29.52;;;16.63;;
43449;SDS011;29041;42.266;23.110;2023-12-20T12:31:23;36.92;;;19.85;;
43449;SDS011;29041;42.266;23.110;2023-12-20T12:34:12;40.78;;;19.98;;
43449;SDS011;29041;42.266;23.110;2023-12-20T12:36:59;41.92;;;19.08;;
43449;SDS011;29041;42.266;23.110;2023-12-20T12:39:46;53.97;;;22.58;;
43449;SDS011;29041;42.266;23.110;2023-12-20T12:42:34;44.42;;;20.55;;
43449;SDS011;29041;42.266;23.110;2023-12-20T12:45:21;40.35;;;19.08;;
43449;SDS011;29041;42.266;23.110;2023-12-20T12:48:10;54.40;;;23.50;;
43449;SDS011;29041;42.266;23.110;2023-12-20T12:51:02;53.17;;;22.30;;
43449;SDS011;29041;42.266;23.110;2023-12-20T12:53:50;39.33;;;17.25;;
43449;SDS011;29041;42.266;23.110;2023-12-20T12:56:37;44.75;;;20.98;;
43449;SDS011;29041;42.266;23.110;2023-12-20T12:59:25;37.85;;;17.73;;
43449;SDS011;29041;42.266;23.110;2023-12-20T13:02:13;40.40;;;16.90;;
43449;SDS011;29041;42.266;23.110;2023-12-20T13:05:02;40.28;;;17.30;;
43449;SDS011;29041;42.266;23.110;2023-12-20T13:07:49;33.22;;;15.05;;
43449;SDS011;29041;42.266;23.110;2023-12-20T13:10:37;37.85;;;15.95;;
43449;SDS011;29041;42.266;23.110;2023-12-20T13:13:24;27.65;;;12.45;;
43449;SDS011;29041;42.266;23.110;2023-12-20T13:16:11;27.42;;;13.65;;
43449;SDS011;29041;42.266;23.110;2023-12-20T13:18:58;22.98;;;13.70;;
43449;SDS011;29041;42.266;23.110;2023-12-20T13:21:47;26.80;;;12.23;;
43449;SDS011;29041;42.266;23.110;2023-12-20T13:24:34;26.17;;;13.25;;
43449;SDS011;29041;42.266;23.110;2023-12-20T13:27:21;34.03;;;15.20;;
43449;SDS011;29041;42.266;23.110;2023-12-20T13:30:09;35.53;;;17.10;;
43449;SDS011;29041;42.266;23.110;2023-12-20T13:32:57;32.63;;;15.70;;
43449;SDS011;29041;42.266;23.110;2023-12-20T13:35:45;32.65;;;16.10;;
43449;SDS011;29041;42.266;23.110;2023-12-20T13:38:33;36.20;;;15.00;;
43449;SDS011;29041;42.266;23.110;2023-12-20T13:41:21;31.63;;;13.38;;
43449;SDS011;29041;42.266;23.110;2023-12-20T13:44:08;32.90;;;15.40;;
43449;SDS011;29041;42.266;23.110;2023-12-20T13:46:55;34.45;;;17.55;;
43449;SDS011;29041;42.266;23.110;2023-12-20T13:49:42;33.55;;;15.45;;
43449;SDS011;29041;42.266;23.110;2023-12-20T13:52:30;31.10;;;12.95;;
43449;SDS011;29041;42.266;23.110;2023-12-20T13:55:19;25.92;;;15.25;;
43449;SDS011;29041;42.266;23.110;2023-12-20T13:58:10;33.75;;;14.40;;
43449;SDS011;29041;42.266;23.110;2023-12-20T14:00:57;31.25;;;16.00;;
43449;SDS011;29041;42.266;23.110;2023-12-20T14:03:44;27.65;;;14.68;;
43449;SDS011;29041;42.266;23.110;2023-12-20T14:06:32;34.80;;;17.58;;
43449;SDS011;29041;42.266;23.110;2023-12-20T14:09:19;36.47;;;16.05;;
43449;SDS011;29041;42.266;23.110;2023-12-20T14:12:08;37.00;;;17.10;;
43449;SDS011;29041;42.266;23.110;2023-12-20T14:14:55;49.80;;;22.65;;
43449;SDS011;29041;42.266;23.110;2023-12-20T14:17:42;38.20;;;17.27;;
43449;SDS011;29041;42.266;23.110;2023-12-20T14:20:29;47.33;;;23.58;;
43449;SDS011;29041;42.266;23.110;2023-12-20T14:23:17;59.55;;;24.63;;
43449;SDS011;29041;42.266;23.110;2023-12-20T14:26:04;45.03;;;17.33;;
43449;SDS011;29041;42.266;23.110;2023-12-20T14:28:53;31.45;;;15.38;;
43449;SDS011;29041;42.266;23.110;2023-12-20T14:31:50;30.02;;;17.38;;
43449;SDS011;29041;42.266;23.110;2023-12-20T14:34:37;37.55;;;16.33;;
43449;SDS011;29041;42.266;23.110;2023-12-20T14:37:24;35.60;;;16.38;;
43449;SDS011;29041;42.266;23.110;2023-12-20T14:40:12;30.33;;;14.65;;
43449;SDS011;29041;42.266;23.110;2023-12-20T14:43:02;27.48;;;14.98;;
43449;SDS011;29041;42.266;23.110;2023-12-20T14:45:51;33.03;;;13.80;;
43449;SDS011;29041;42.266;23.110;2023-12-20T14:48:38;28.88;;;12.18;;
43449;SDS011;29041;42.266;23.110;2023-12-20T14:51:31;30.25;;;14.25;;
43449;SDS011;29041;42.266;23.110;2023-12-20T14:54:18;26.60;;;13.02;;
43449;SDS011;29041;42.266;23.110;2023-12-20T14:57:06;51.13;;;16.10;;
43449;SDS011;29041;42.266;23.110;2023-12-20T14:59:53;26.00;;;14.63;;
43449;SDS011;29041;42.266;23.110;2023-12-20T15:02:42;30.08;;;16.38;;
43449;SDS011;29041;42.266;23.110;2023-12-20T15:05:29;38.55;;;17.27;;
43449;SDS011;29041;42.266;23.110;2023-12-20T15:08:16;36.33;;;16.48;;
43449;SDS011;29041;42.266;23.110;2023-12-20T15:11:03;31.42;;;15.85;;
43449;SDS011;29041;42.266;23.110;2023-12-20T15:13:50;31.50;;;13.30;;
43449;SDS011;29041;42.266;23.110;2023-12-20T15:16:41;42.25;;;18.92;;
43449;SDS011;29041;42.266;23.110;2023-12-20T15:19:30;39.67;;;19.08;;
43449;SDS011;29041;42.266;23.110;2023-12-20T15:22:17;43.15;;;24.92;;
43449;SDS011;29041;42.266;23.110;2023-12-20T15:25:04;37.95;;;19.13;;
43449;SDS011;29041;42.266;23.110;2023-12-20T15:27:53;44.22;;;19.83;;
43449;SDS011;29041;42.266;23.110;2023-12-20T15:30:40;33.92;;;16.10;;
43449;SDS011;29041;42.266;23.110;2023-12-20T15:33:28;33.47;;;16.02;;
43449;SDS011;29041;42.266;23.110;2023-12-20T15:36:16;34.25;;;17.27;;
43449;SDS011;29041;42.266;23.110;2023-12-20T15:39:04;34.55;;;16.70;;
43449;SDS011;29041;42.266;23.110;2023-12-20T15:41:53;43.15;;;19.38;;
43449;SDS011;29041;42.266;23.110;2023-12-20T15:44:40;41.00;;;15.68;;
43449;SDS011;29041;42.266;23.110;2023-12-20T15:47:28;29.52;;;14.27;;
43449;SDS011;29041;42.266;23.110;2023-12-20T15:50:15;35.13;;;14.32;;
43449;SDS011;29041;42.266;23.110;2023-12-20T15:53:03;28.15;;;15.73;;
43449;SDS011;29041;42.266;23.110;2023-12-20T15:55:50;33.20;;;14.48;;
43449;SDS011;29041;42.266;23.110;2023-12-20T15:58:38;24.25;;;12.13;;
43449;SDS011;29041;42.266;23.110;2023-12-20T16:01:25;49.65;;;17.80;;
43449;SDS011;29041;42.266;23.110;2023-12-20T16:04:12;31.08;;;15.98;;
43449;SDS011;29041;42.266;23.110;2023-12-20T16:06:59;45.78;;;19.42;;
43449;SDS011;29041;42.266;23.110;2023-12-20T16:09:53;36.05;;;16.08;;
43449;SDS011;29041;42.266;23.110;2023-12-20T16:12:40;34.15;;;16.85;;
43449;SDS011;29041;42.266;23.110;2023-12-20T16:15:27;36.05;;;15.25;;
43449;SDS011;29041;42.266;23.110;2023-12-20T16:18:14;29.08;;;13.43;;
43449;SDS011;29041;42.266;23.110;2023-12-20T16:21:01;27.20;;;13.73;;
43449;SDS011;29041;42.266;23.110;2023-12-20T16:23:49;34.20;;;15.00;;